sensor_id;sensor_type;location;lat;lon;timestamp;temperature;humidity
60848;DHT22;46681;47.696;9.140;2023-05-10T00:00:42;17.10;71.30
60848;DHT22;46681;47.696;9.140;2023-05-10T00:03:08;17.10;71.40
60848;DHT22;46681;47.696;9.140;2023-05-10T00:05:34;17.10;70.90
60848;DHT22;46681;47.696;9.140;2023-05-10T00:07:59;17.00;71.10
60848;DHT22;46681;47.696;9.140;2023-05-10T00:10:25;17.00;71.40
60848;DHT22;46681;47.696;9.140;2023-05-10T00:12:50;17.00;71.40
60848;DHT22;46681;47.696;9.140;2023-05-10T00:15:16;17.00;71.00
60848;DHT22;46681;47.696;9.140;2023-05-10T00:17:43;16.90;71.20
60848;DHT22;46681;47.696;9.140;2023-05-10T00:20:09;16.90;71.00
60848;DHT22;46681;47.696;9.140;2023-05-10T00:22:34;16.90;71.00
60848;DHT22;46681;47.696;9.140;2023-05-10T00:25:00;16.90;71.20
60848;DHT22;46681;47.696;9.140;2023-05-10T00:27:26;16.90;71.40
60848;DHT22;46681;47.696;9.140;2023-05-10T00:29:52;16.90;71.10
60848;DHT22;46681;47.696;9.140;2023-05-10T00:32:17;16.90;70.90
60848;DHT22;46681;47.696;9.140;2023-05-10T00:34:43;16.80;71.40
60848;DHT22;46681;47.696;9.140;2023-05-10T00:37:10;16.80;71.10
60848;DHT22;46681;47.696;9.140;2023-05-10T00:39:35;16.80;71.20
60848;DHT22;46681;47.696;9.140;2023-05-10T00:42:01;16.80;70.40
60848;DHT22;46681;47.696;9.140;2023-05-10T00:44:28;16.70;71.10
60848;DHT22;46681;47.696;9.140;2023-05-10T00:46:53;16.70;70.90
60848;DHT22;46681;47.696;9.140;2023-05-10T00:49:21;16.60;70.70
60848;DHT22;46681;47.696;9.140;2023-05-10T00:51:47;16.70;71.10
60848;DHT22;46681;47.696;9.140;2023-05-10T00:54:15;16.60;70.60
60848;DHT22;46681;47.696;9.140;2023-05-10T00:56:41;16.60;70.70
60848;DHT22;46681;47.696;9.140;2023-05-10T00:59:11;16.60;70.90
60848;DHT22;46681;47.696;9.140;2023-05-10T01:01:36;16.60;70.70
60848;DHT22;46681;47.696;9.140;2023-05-10T01:04:02;16.60;71.10
60848;DHT22;46681;47.696;9.140;2023-05-10T01:06:28;16.60;70.50
60848;DHT22;46681;47.696;9.140;2023-05-10T01:08:54;16.50;70.90
60848;DHT22;46681;47.696;9.140;2023-05-10T01:11:21;16.50;70.80
60848;DHT22;46681;47.696;9.140;2023-05-10T01:13:55;16.50;70.90
60848;DHT22;46681;47.696;9.140;2023-05-10T01:16:24;16.50;70.90
60848;DHT22;46681;47.696;9.140;2023-05-10T01:18:50;16.50;70.70
60848;DHT22;46681;47.696;9.140;2023-05-10T01:30:15;16.40;70.70
60848;DHT22;46681;47.696;9.140;2023-05-10T01:33:09;16.40;71.10
60848;DHT22;46681;47.696;9.140;2023-05-10T01:38:50;16.40;70.80
60848;DHT22;46681;47.696;9.140;2023-05-10T01:46:39;16.30;70.60
60848;DHT22;46681;47.696;9.140;2023-05-10T01:49:14;16.30;71.00
60848;DHT22;46681;47.696;9.140;2023-05-10T01:51:50;16.30;71.20
60848;DHT22;46681;47.696;9.140;2023-05-10T01:54:21;16.30;70.70
60848;DHT22;46681;47.696;9.140;2023-05-10T01:56:55;16.30;70.80
60848;DHT22;46681;47.696;9.140;2023-05-10T01:59:23;16.30;71.20
60848;DHT22;46681;47.696;9.140;2023-05-10T02:01:52;16.30;71.10
60848;DHT22;46681;47.696;9.140;2023-05-10T02:04:21;16.30;71.30
60848;DHT22;46681;47.696;9.140;2023-05-10T02:06:48;16.30;70.80
60848;DHT22;46681;47.696;9.140;2023-05-10T02:09:21;16.30;71.00
60848;DHT22;46681;47.696;9.140;2023-05-10T02:11:55;16.30;70.90
60848;DHT22;46681;47.696;9.140;2023-05-10T02:14:28;16.30;71.00
60848;DHT22;46681;47.696;9.140;2023-05-10T02:16:56;16.30;71.00
60848;DHT22;46681;47.696;9.140;2023-05-10T02:19:27;16.30;71.00
60848;DHT22;46681;47.696;9.140;2023-05-10T02:21:57;16.20;70.90
60848;DHT22;46681;47.696;9.140;2023-05-10T02:24:25;16.20;70.80
60848;DHT22;46681;47.696;9.140;2023-05-10T02:26:55;16.20;71.00
60848;DHT22;46681;47.696;9.140;2023-05-10T02:29:24;16.20;71.10
60848;DHT22;46681;47.696;9.140;2023-05-10T02:31:51;16.20;71.00
60848;DHT22;46681;47.696;9.140;2023-05-10T02:34:19;16.20;71.00
60848;DHT22;46681;47.696;9.140;2023-05-10T02:36:47;16.20;71.20
60848;DHT22;46681;47.696;9.140;2023-05-10T02:39:21;16.20;70.90
60848;DHT22;46681;47.696;9.140;2023-05-10T02:41:49;16.20;71.20
60848;DHT22;46681;47.696;9.140;2023-05-10T02:44:18;16.20;70.70
60848;DHT22;46681;47.696;9.140;2023-05-10T02:46:45;16.20;71.10
60848;DHT22;46681;47.696;9.140;2023-05-10T02:49:11;16.20;71.00
60848;DHT22;46681;47.696;9.140;2023-05-10T02:51:42;16.20;71.10
60848;DHT22;46681;47.696;9.140;2023-05-10T02:54:19;16.20;71.00
60848;DHT22;46681;47.696;9.140;2023-05-10T02:56:53;16.20;71.20
60848;DHT22;46681;47.696;9.140;2023-05-10T02:59:22;16.20;71.10
60848;DHT22;46681;47.696;9.140;2023-05-10T03:01:47;16.10;70.90
60848;DHT22;46681;47.696;9.140;2023-05-10T03:04:13;16.10;71.10
60848;DHT22;46681;47.696;9.140;2023-05-10T03:06:39;16.10;71.10
60848;DHT22;46681;47.696;9.140;2023-05-10T03:09:05;16.10;71.20
60848;DHT22;46681;47.696;9.140;2023-05-10T03:11:37;16.10;71.50
60848;DHT22;46681;47.696;9.140;2023-05-10T03:17:23;16.10;71.40
60848;DHT22;46681;47.696;9.140;2023-05-10T03:19:55;16.10;71.60
60848;DHT22;46681;47.696;9.140;2023-05-10T03:22:26;16.10;71.70
60848;DHT22;46681;47.696;9.140;2023-05-10T03:24:56;16.10;71.70
60848;DHT22;46681;47.696;9.140;2023-05-10T03:27:23;16.10;72.10
60848;DHT22;46681;47.696;9.140;2023-05-10T03:29:51;16.10;71.80
60848;DHT22;46681;47.696;9.140;2023-05-10T03:32:19;16.10;71.90
60848;DHT22;46681;47.696;9.140;2023-05-10T03:34:44;16.10;71.70
60848;DHT22;46681;47.696;9.140;2023-05-10T03:37:10;16.10;71.70
60848;DHT22;46681;47.696;9.140;2023-05-10T03:39:36;16.00;71.50
60848;DHT22;46681;47.696;9.140;2023-05-10T03:42:01;16.00;70.90
60848;DHT22;46681;47.696;9.140;2023-05-10T03:44:28;16.00;71.70
60848;DHT22;46681;47.696;9.140;2023-05-10T03:46:54;16.00;71.60
60848;DHT22;46681;47.696;9.140;2023-05-10T03:49:21;16.00;71.60
60848;DHT22;46681;47.696;9.140;2023-05-10T03:51:47;16.00;71.90
60848;DHT22;46681;47.696;9.140;2023-05-10T03:54:12;16.00;72.00
60848;DHT22;46681;47.696;9.140;2023-05-10T03:56:40;16.00;71.90
60848;DHT22;46681;47.696;9.140;2023-05-10T03:59:05;16.00;71.80
60848;DHT22;46681;47.696;9.140;2023-05-10T04:01:31;16.00;72.40
60848;DHT22;46681;47.696;9.140;2023-05-10T04:03:56;16.00;72.20
60848;DHT22;46681;47.696;9.140;2023-05-10T04:06:22;16.00;72.10
60848;DHT22;46681;47.696;9.140;2023-05-10T04:08:47;16.00;71.90
60848;DHT22;46681;47.696;9.140;2023-05-10T04:11:15;16.00;71.80
60848;DHT22;46681;47.696;9.140;2023-05-10T04:13:41;16.00;71.90
60848;DHT22;46681;47.696;9.140;2023-05-10T04:16:07;16.00;71.80
60848;DHT22;46681;47.696;9.140;2023-05-10T04:18:34;16.00;71.90
60848;DHT22;46681;47.696;9.140;2023-05-10T04:21:00;16.00;71.90
60848;DHT22;46681;47.696;9.140;2023-05-10T04:23:27;16.00;71.90
60848;DHT22;46681;47.696;9.140;2023-05-10T04:25:52;16.00;72.00
60848;DHT22;46681;47.696;9.140;2023-05-10T04:28:18;16.00;72.50
60848;DHT22;46681;47.696;9.140;2023-05-10T04:30:45;16.00;71.90
60848;DHT22;46681;47.696;9.140;2023-05-10T04:33:11;16.00;72.00
60848;DHT22;46681;47.696;9.140;2023-05-10T04:35:37;16.00;72.80
60848;DHT22;46681;47.696;9.140;2023-05-10T04:38:03;16.00;72.80
60848;DHT22;46681;47.696;9.140;2023-05-10T04:40:28;16.10;72.50
60848;DHT22;46681;47.696;9.140;2023-05-10T04:42:55;16.00;72.00
60848;DHT22;46681;47.696;9.140;2023-05-10T04:45:20;16.10;73.00
60848;DHT22;46681;47.696;9.140;2023-05-10T04:47:47;16.10;73.00
60848;DHT22;46681;47.696;9.140;2023-05-10T04:50:19;16.10;72.50
60848;DHT22;46681;47.696;9.140;2023-05-10T04:52:45;16.10;72.50
60848;DHT22;46681;47.696;9.140;2023-05-10T04:55:12;16.10;72.70
60848;DHT22;46681;47.696;9.140;2023-05-10T04:57:40;16.10;71.80
60848;DHT22;46681;47.696;9.140;2023-05-10T05:00:09;16.10;71.70
60848;DHT22;46681;47.696;9.140;2023-05-10T05:02:45;16.00;71.70
60848;DHT22;46681;47.696;9.140;2023-05-10T05:05:12;16.00;71.70
60848;DHT22;46681;47.696;9.140;2023-05-10T05:07:38;16.00;71.40
60848;DHT22;46681;47.696;9.140;2023-05-10T05:10:08;16.00;71.20
60848;DHT22;46681;47.696;9.140;2023-05-10T05:12:37;16.00;71.30
60848;DHT22;46681;47.696;9.140;2023-05-10T05:15:08;15.90;71.30
60848;DHT22;46681;47.696;9.140;2023-05-10T05:17:38;15.90;71.50
60848;DHT22;46681;47.696;9.140;2023-05-10T05:20:04;15.90;71.10
60848;DHT22;46681;47.696;9.140;2023-05-10T05:22:32;15.90;70.40
60848;DHT22;46681;47.696;9.140;2023-05-10T05:24:59;15.90;70.60
60848;DHT22;46681;47.696;9.140;2023-05-10T05:27:25;15.90;70.60
60848;DHT22;46681;47.696;9.140;2023-05-10T05:29:52;15.90;70.40
60848;DHT22;46681;47.696;9.140;2023-05-10T05:32:24;15.80;71.50
60848;DHT22;46681;47.696;9.140;2023-05-10T05:34:54;15.80;71.40
60848;DHT22;46681;47.696;9.140;2023-05-10T05:37:24;15.70;72.50
60848;DHT22;46681;47.696;9.140;2023-05-10T05:39:50;15.80;73.20
60848;DHT22;46681;47.696;9.140;2023-05-10T05:42:19;15.90;73.30
60848;DHT22;46681;47.696;9.140;2023-05-10T05:44:48;16.00;72.40
60848;DHT22;46681;47.696;9.140;2023-05-10T05:47:16;16.00;72.10
60848;DHT22;46681;47.696;9.140;2023-05-10T05:49:41;16.00;72.20
60848;DHT22;46681;47.696;9.140;2023-05-10T05:52:07;16.00;72.10
60848;DHT22;46681;47.696;9.140;2023-05-10T05:54:33;16.00;71.70
60848;DHT22;46681;47.696;9.140;2023-05-10T05:57:01;16.00;72.10
60848;DHT22;46681;47.696;9.140;2023-05-10T05:59:31;16.00;72.00
60848;DHT22;46681;47.696;9.140;2023-05-10T06:02:00;16.00;72.00
60848;DHT22;46681;47.696;9.140;2023-05-10T06:04:27;15.90;71.80
60848;DHT22;46681;47.696;9.140;2023-05-10T06:06:55;16.00;72.40
60848;DHT22;46681;47.696;9.140;2023-05-10T06:09:22;16.00;72.20
60848;DHT22;46681;47.696;9.140;2023-05-10T06:11:58;16.00;72.40
60848;DHT22;46681;47.696;9.140;2023-05-10T06:14:27;16.10;72.90
60848;DHT22;46681;47.696;9.140;2023-05-10T06:16:58;16.10;72.50
60848;DHT22;46681;47.696;9.140;2023-05-10T06:19:29;16.20;73.00
60848;DHT22;46681;47.696;9.140;2023-05-10T06:21:56;16.10;72.50
60848;DHT22;46681;47.696;9.140;2023-05-10T06:24:25;16.10;72.70
60848;DHT22;46681;47.696;9.140;2023-05-10T06:26:55;16.10;72.10
60848;DHT22;46681;47.696;9.140;2023-05-10T06:29:22;16.00;71.90
60848;DHT22;46681;47.696;9.140;2023-05-10T06:31:52;16.00;71.90
60848;DHT22;46681;47.696;9.140;2023-05-10T06:34:18;16.00;71.80
60848;DHT22;46681;47.696;9.140;2023-05-10T06:36:43;16.00;71.70
60848;DHT22;46681;47.696;9.140;2023-05-10T06:39:08;16.00;71.30
60848;DHT22;46681;47.696;9.140;2023-05-10T06:41:34;16.00;71.70
60848;DHT22;46681;47.696;9.140;2023-05-10T06:44:05;16.00;71.40
60848;DHT22;46681;47.696;9.140;2023-05-10T06:46:35;16.10;71.50
60848;DHT22;46681;47.696;9.140;2023-05-10T06:49:02;16.10;71.30
60848;DHT22;46681;47.696;9.140;2023-05-10T06:51:30;16.10;71.30
60848;DHT22;46681;47.696;9.140;2023-05-10T06:53:57;16.10;71.20
60848;DHT22;46681;47.696;9.140;2023-05-10T06:56:23;16.10;71.00
60848;DHT22;46681;47.696;9.140;2023-05-10T06:58:50;16.10;71.00
60848;DHT22;46681;47.696;9.140;2023-05-10T07:01:19;16.10;71.00
60848;DHT22;46681;47.696;9.140;2023-05-10T07:03:46;16.10;70.90
60848;DHT22;46681;47.696;9.140;2023-05-10T07:06:12;16.10;71.00
60848;DHT22;46681;47.696;9.140;2023-05-10T07:08:40;16.10;70.70
60848;DHT22;46681;47.696;9.140;2023-05-10T07:11:16;16.10;70.70
60848;DHT22;46681;47.696;9.140;2023-05-10T07:13:42;16.20;70.80
60848;DHT22;46681;47.696;9.140;2023-05-10T07:16:08;16.20;70.40
60848;DHT22;46681;47.696;9.140;2023-05-10T07:18:38;16.20;70.60
60848;DHT22;46681;47.696;9.140;2023-05-10T07:21:04;16.20;70.70
60848;DHT22;46681;47.696;9.140;2023-05-10T07:23:31;16.20;70.70
60848;DHT22;46681;47.696;9.140;2023-05-10T07:26:00;16.30;70.30
60848;DHT22;46681;47.696;9.140;2023-05-10T07:28:25;16.30;70.20
60848;DHT22;46681;47.696;9.140;2023-05-10T07:30:53;16.30;70.40
60848;DHT22;46681;47.696;9.140;2023-05-10T07:33:22;16.30;70.80
60848;DHT22;46681;47.696;9.140;2023-05-10T07:35:49;16.40;70.80
60848;DHT22;46681;47.696;9.140;2023-05-10T07:38:19;16.40;70.60
60848;DHT22;46681;47.696;9.140;2023-05-10T07:40:45;16.40;70.20
60848;DHT22;46681;47.696;9.140;2023-05-10T07:43:12;16.40;69.80
60848;DHT22;46681;47.696;9.140;2023-05-10T07:45:41;16.50;69.90
60848;DHT22;46681;47.696;9.140;2023-05-10T07:48:12;16.50;69.40
60848;DHT22;46681;47.696;9.140;2023-05-10T07:50:37;16.50;69.20
60848;DHT22;46681;47.696;9.140;2023-05-10T07:53:04;16.50;69.30
60848;DHT22;46681;47.696;9.140;2023-05-10T07:55:41;16.50;69.40
60848;DHT22;46681;47.696;9.140;2023-05-10T07:58:07;16.50;69.10
60848;DHT22;46681;47.696;9.140;2023-05-10T08:00:33;16.60;69.10
60848;DHT22;46681;47.696;9.140;2023-05-10T08:03:02;16.60;69.30
60848;DHT22;46681;47.696;9.140;2023-05-10T08:05:28;16.60;68.80
60848;DHT22;46681;47.696;9.140;2023-05-10T08:07:54;16.70;69.00
60848;DHT22;46681;47.696;9.140;2023-05-10T08:10:21;16.70;68.70
60848;DHT22;46681;47.696;9.140;2023-05-10T08:12:49;16.70;68.30
60848;DHT22;46681;47.696;9.140;2023-05-10T08:15:24;16.80;68.30
60848;DHT22;46681;47.696;9.140;2023-05-10T08:17:54;16.80;68.10
60848;DHT22;46681;47.696;9.140;2023-05-10T08:20:27;16.70;68.30
60848;DHT22;46681;47.696;9.140;2023-05-10T08:22:57;16.80;68.70
60848;DHT22;46681;47.696;9.140;2023-05-10T08:25:24;16.80;68.90
60848;DHT22;46681;47.696;9.140;2023-05-10T08:27:57;16.90;69.50
60848;DHT22;46681;47.696;9.140;2023-05-10T08:30:23;16.90;69.80
60848;DHT22;46681;47.696;9.140;2023-05-10T08:33:03;16.90;69.00
60848;DHT22;46681;47.696;9.140;2023-05-10T08:35:40;16.90;68.80
60848;DHT22;46681;47.696;9.140;2023-05-10T08:38:10;16.90;68.70
60848;DHT22;46681;47.696;9.140;2023-05-10T08:40:44;16.90;68.60
60848;DHT22;46681;47.696;9.140;2023-05-10T08:43:22;16.90;68.30
60848;DHT22;46681;47.696;9.140;2023-05-10T08:45:52;16.90;67.70
60848;DHT22;46681;47.696;9.140;2023-05-10T08:48:28;16.90;67.40
60848;DHT22;46681;47.696;9.140;2023-05-10T08:51:05;16.90;67.80
60848;DHT22;46681;47.696;9.140;2023-05-10T08:53:35;16.90;67.60
60848;DHT22;46681;47.696;9.140;2023-05-10T08:56:08;16.90;67.50
60848;DHT22;46681;47.696;9.140;2023-05-10T08:58:40;17.00;67.60
60848;DHT22;46681;47.696;9.140;2023-05-10T09:01:10;17.00;67.40
60848;DHT22;46681;47.696;9.140;2023-05-10T09:03:39;17.00;66.90
60848;DHT22;46681;47.696;9.140;2023-05-10T09:06:12;17.10;67.10
60848;DHT22;46681;47.696;9.140;2023-05-10T09:08:41;17.10;67.40
60848;DHT22;46681;47.696;9.140;2023-05-10T09:11:11;17.20;66.60
60848;DHT22;46681;47.696;9.140;2023-05-10T09:13:44;17.30;67.10
60848;DHT22;46681;47.696;9.140;2023-05-10T09:16:20;17.30;66.60
60848;DHT22;46681;47.696;9.140;2023-05-10T09:18:50;17.30;66.50
60848;DHT22;46681;47.696;9.140;2023-05-10T09:21:16;17.30;66.40
60848;DHT22;46681;47.696;9.140;2023-05-10T09:23:50;17.40;66.10
60848;DHT22;46681;47.696;9.140;2023-05-10T09:26:16;17.50;66.30
60848;DHT22;46681;47.696;9.140;2023-05-10T09:29:02;17.60;65.80
60848;DHT22;46681;47.696;9.140;2023-05-10T09:31:49;17.70;65.40
60848;DHT22;46681;47.696;9.140;2023-05-10T09:34:41;17.80;64.90
60848;DHT22;46681;47.696;9.140;2023-05-10T09:37:06;17.90;65.10
60848;DHT22;46681;47.696;9.140;2023-05-10T09:39:56;18.00;64.00
60848;DHT22;46681;47.696;9.140;2023-05-10T09:43:08;18.10;63.60
60848;DHT22;46681;47.696;9.140;2023-05-10T09:45:40;18.20;64.10
60848;DHT22;46681;47.696;9.140;2023-05-10T09:48:44;18.20;63.20
60848;DHT22;46681;47.696;9.140;2023-05-10T09:51:38;18.30;61.80
60848;DHT22;46681;47.696;9.140;2023-05-10T09:54:52;18.30;62.60
60848;DHT22;46681;47.696;9.140;2023-05-10T09:57:29;18.40;61.40
60848;DHT22;46681;47.696;9.140;2023-05-10T10:00:06;18.50;62.30
60848;DHT22;46681;47.696;9.140;2023-05-10T10:02:57;18.60;60.40
60848;DHT22;46681;47.696;9.140;2023-05-10T10:05:42;18.80;60.00
60848;DHT22;46681;47.696;9.140;2023-05-10T10:08:15;18.90;59.40
60848;DHT22;46681;47.696;9.140;2023-05-10T10:10:53;19.00;59.90
60848;DHT22;46681;47.696;9.140;2023-05-10T10:13:20;19.10;60.30
60848;DHT22;46681;47.696;9.140;2023-05-10T10:18:59;19.20;60.40
60848;DHT22;46681;47.696;9.140;2023-05-10T10:21:46;19.30;58.80
60848;DHT22;46681;47.696;9.140;2023-05-10T10:27:59;19.50;58.90
60848;DHT22;46681;47.696;9.140;2023-05-10T10:36:53;19.70;58.60
60848;DHT22;46681;47.696;9.140;2023-05-10T10:42:54;19.80;58.50
60848;DHT22;46681;47.696;9.140;2023-05-10T10:45:28;19.80;58.20
60848;DHT22;46681;47.696;9.140;2023-05-10T10:48:40;19.80;55.60
60848;DHT22;46681;47.696;9.140;2023-05-10T11:00:38;19.80;52.30
60848;DHT22;46681;47.696;9.140;2023-05-10T11:03:18;19.80;51.90
60848;DHT22;46681;47.696;9.140;2023-05-10T11:09:07;19.80;53.40
60848;DHT22;46681;47.696;9.140;2023-05-10T11:15:07;19.80;54.70
60848;DHT22;46681;47.696;9.140;2023-05-10T11:21:15;19.90;52.70
60848;DHT22;46681;47.696;9.140;2023-05-10T11:23:48;19.90;52.30
60848;DHT22;46681;47.696;9.140;2023-05-10T11:26:45;19.90;53.50
60848;DHT22;46681;47.696;9.140;2023-05-10T11:29:33;19.90;51.60
60848;DHT22;46681;47.696;9.140;2023-05-10T11:32:16;19.90;50.90
60848;DHT22;46681;47.696;9.140;2023-05-10T11:34:42;19.80;51.60
60848;DHT22;46681;47.696;9.140;2023-05-10T11:37:08;19.70;51.70
60848;DHT22;46681;47.696;9.140;2023-05-10T11:39:36;19.70;51.90
60848;DHT22;46681;47.696;9.140;2023-05-10T11:42:11;19.70;52.30
60848;DHT22;46681;47.696;9.140;2023-05-10T11:45:06;19.70;53.20
60848;DHT22;46681;47.696;9.140;2023-05-10T11:47:38;19.60;50.50
60848;DHT22;46681;47.696;9.140;2023-05-10T11:50:50;19.60;51.10
60848;DHT22;46681;47.696;9.140;2023-05-10T11:53:29;19.50;50.90
60848;DHT22;46681;47.696;9.140;2023-05-10T11:56:12;19.50;52.30
60848;DHT22;46681;47.696;9.140;2023-05-10T11:58:57;19.50;51.60
60848;DHT22;46681;47.696;9.140;2023-05-10T12:04:49;19.50;51.50
60848;DHT22;46681;47.696;9.140;2023-05-10T12:07:30;19.60;51.70
60848;DHT22;46681;47.696;9.140;2023-05-10T12:10:28;19.60;52.80
60848;DHT22;46681;47.696;9.140;2023-05-10T12:13:03;19.60;52.30
60848;DHT22;46681;47.696;9.140;2023-05-10T12:15:32;19.70;51.90
60848;DHT22;46681;47.696;9.140;2023-05-10T12:18:10;19.70;51.80
60848;DHT22;46681;47.696;9.140;2023-05-10T12:20:54;19.80;51.50
60848;DHT22;46681;47.696;9.140;2023-05-10T12:23:33;19.80;52.00
60848;DHT22;46681;47.696;9.140;2023-05-10T12:26:24;19.80;52.10
60848;DHT22;46681;47.696;9.140;2023-05-10T12:29:23;19.90;52.50
60848;DHT22;46681;47.696;9.140;2023-05-10T12:32:00;19.90;51.70
60848;DHT22;46681;47.696;9.140;2023-05-10T12:34:48;20.00;51.30
60848;DHT22;46681;47.696;9.140;2023-05-10T12:40:33;20.00;50.80
60848;DHT22;46681;47.696;9.140;2023-05-10T12:43:05;20.10;52.00
60848;DHT22;46681;47.696;9.140;2023-05-10T12:45:35;20.10;50.80
60848;DHT22;46681;47.696;9.140;2023-05-10T12:48:02;20.10;49.60
60848;DHT22;46681;47.696;9.140;2023-05-10T12:50:30;20.10;49.20
60848;DHT22;46681;47.696;9.140;2023-05-10T12:53:17;20.10;49.30
60848;DHT22;46681;47.696;9.140;2023-05-10T12:55:46;20.10;49.20
60848;DHT22;46681;47.696;9.140;2023-05-10T12:58:21;20.10;49.20
60848;DHT22;46681;47.696;9.140;2023-05-10T13:00:58;20.10;48.70
60848;DHT22;46681;47.696;9.140;2023-05-10T13:03:41;20.10;49.30
60848;DHT22;46681;47.696;9.140;2023-05-10T13:06:06;20.10;48.50
60848;DHT22;46681;47.696;9.140;2023-05-10T13:08:32;20.10;49.10
60848;DHT22;46681;47.696;9.140;2023-05-10T13:11:07;20.10;48.70
60848;DHT22;46681;47.696;9.140;2023-05-10T13:13:44;20.10;48.80
60848;DHT22;46681;47.696;9.140;2023-05-10T13:16:19;19.60;47.50
60848;DHT22;46681;47.696;9.140;2023-05-10T13:18:54;19.70;49.30
60848;DHT22;46681;47.696;9.140;2023-05-10T13:21:28;19.80;48.60
60848;DHT22;46681;47.696;9.140;2023-05-10T13:24:07;19.90;48.20
60848;DHT22;46681;47.696;9.140;2023-05-10T13:26:35;20.00;48.10
60848;DHT22;46681;47.696;9.140;2023-05-10T13:29:13;20.10;47.30
60848;DHT22;46681;47.696;9.140;2023-05-10T13:31:45;20.10;46.90
60848;DHT22;46681;47.696;9.140;2023-05-10T13:34:14;20.20;48.60
60848;DHT22;46681;47.696;9.140;2023-05-10T13:36:44;20.20;47.40
60848;DHT22;46681;47.696;9.140;2023-05-10T13:39:14;20.20;47.20
60848;DHT22;46681;47.696;9.140;2023-05-10T13:41:50;20.30;47.80
60848;DHT22;46681;47.696;9.140;2023-05-10T13:44:26;20.30;46.90
60848;DHT22;46681;47.696;9.140;2023-05-10T13:47:05;20.30;47.30
60848;DHT22;46681;47.696;9.140;2023-05-10T13:49:45;20.30;46.90
60848;DHT22;46681;47.696;9.140;2023-05-10T13:52:16;20.30;47.00
60848;DHT22;46681;47.696;9.140;2023-05-10T13:54:46;20.30;47.70
60848;DHT22;46681;47.696;9.140;2023-05-10T13:57:18;20.40;47.40
60848;DHT22;46681;47.696;9.140;2023-05-10T13:59:45;20.40;46.30
60848;DHT22;46681;47.696;9.140;2023-05-10T14:02:30;20.30;46.10
60848;DHT22;46681;47.696;9.140;2023-05-10T14:04:59;20.30;47.00
60848;DHT22;46681;47.696;9.140;2023-05-10T14:07:31;20.30;47.10
60848;DHT22;46681;47.696;9.140;2023-05-10T14:10:30;20.30;47.00
60848;DHT22;46681;47.696;9.140;2023-05-10T14:13:18;20.30;47.00
60848;DHT22;46681;47.696;9.140;2023-05-10T14:16:03;20.20;47.90
60848;DHT22;46681;47.696;9.140;2023-05-10T14:18:34;20.10;47.70
60848;DHT22;46681;47.696;9.140;2023-05-10T14:21:06;20.10;47.50
60848;DHT22;46681;47.696;9.140;2023-05-10T14:23:34;20.10;48.70
60848;DHT22;46681;47.696;9.140;2023-05-10T14:26:29;20.10;49.00
60848;DHT22;46681;47.696;9.140;2023-05-10T14:28:56;20.10;48.60
60848;DHT22;46681;47.696;9.140;2023-05-10T14:31:23;20.00;48.90
60848;DHT22;46681;47.696;9.140;2023-05-10T14:34:04;20.10;48.80
60848;DHT22;46681;47.696;9.140;2023-05-10T14:36:34;20.10;49.40
60848;DHT22;46681;47.696;9.140;2023-05-10T14:39:04;20.00;49.10
60848;DHT22;46681;47.696;9.140;2023-05-10T14:41:35;20.00;49.70
60848;DHT22;46681;47.696;9.140;2023-05-10T14:44:08;20.00;49.30
60848;DHT22;46681;47.696;9.140;2023-05-10T14:47:10;20.00;49.40
60848;DHT22;46681;47.696;9.140;2023-05-10T14:50:05;20.00;49.40
60848;DHT22;46681;47.696;9.140;2023-05-10T14:52:33;19.90;49.40
60848;DHT22;46681;47.696;9.140;2023-05-10T14:55:04;19.90;49.40
60848;DHT22;46681;47.696;9.140;2023-05-10T14:57:34;19.90;50.00
60848;DHT22;46681;47.696;9.140;2023-05-10T15:00:13;19.90;51.10
60848;DHT22;46681;47.696;9.140;2023-05-10T15:02:43;19.90;50.30
60848;DHT22;46681;47.696;9.140;2023-05-10T15:05:13;19.90;50.70
60848;DHT22;46681;47.696;9.140;2023-05-10T15:07:39;19.90;50.50
60848;DHT22;46681;47.696;9.140;2023-05-10T15:10:10;19.90;50.70
60848;DHT22;46681;47.696;9.140;2023-05-10T15:12:41;19.80;51.30
60848;DHT22;46681;47.696;9.140;2023-05-10T15:15:07;19.80;51.00
60848;DHT22;46681;47.696;9.140;2023-05-10T15:17:35;19.80;51.40
60848;DHT22;46681;47.696;9.140;2023-05-10T15:20:10;19.80;51.40
60848;DHT22;46681;47.696;9.140;2023-05-10T15:22:41;19.80;52.00
60848;DHT22;46681;47.696;9.140;2023-05-10T15:25:12;19.80;52.10
60848;DHT22;46681;47.696;9.140;2023-05-10T15:27:48;19.70;51.30
60848;DHT22;46681;47.696;9.140;2023-05-10T15:30:15;19.70;50.80
60848;DHT22;46681;47.696;9.140;2023-05-10T15:32:40;19.70;50.70
60848;DHT22;46681;47.696;9.140;2023-05-10T15:35:22;19.70;51.50
60848;DHT22;46681;47.696;9.140;2023-05-10T15:37:51;19.70;52.20
60848;DHT22;46681;47.696;9.140;2023-05-10T15:40:36;19.70;52.20
60848;DHT22;46681;47.696;9.140;2023-05-10T15:43:34;19.60;52.00
60848;DHT22;46681;47.696;9.140;2023-05-10T15:46:31;19.60;52.60
60848;DHT22;46681;47.696;9.140;2023-05-10T15:49:09;19.60;52.00
60848;DHT22;46681;47.696;9.140;2023-05-10T15:51:49;19.60;51.50
60848;DHT22;46681;47.696;9.140;2023-05-10T15:54:26;19.60;51.10
60848;DHT22;46681;47.696;9.140;2023-05-10T15:57:16;19.60;52.20
60848;DHT22;46681;47.696;9.140;2023-05-10T15:59:55;19.50;52.30
60848;DHT22;46681;47.696;9.140;2023-05-10T16:02:29;19.50;52.80
60848;DHT22;46681;47.696;9.140;2023-05-10T16:05:08;19.50;52.80
60848;DHT22;46681;47.696;9.140;2023-05-10T16:07:47;19.50;52.20
60848;DHT22;46681;47.696;9.140;2023-05-10T16:10:22;19.40;52.20
60848;DHT22;46681;47.696;9.140;2023-05-10T16:12:50;19.40;53.00
60848;DHT22;46681;47.696;9.140;2023-05-10T16:15:29;19.40;53.00
60848;DHT22;46681;47.696;9.140;2023-05-10T16:17:59;19.30;52.30
60848;DHT22;46681;47.696;9.140;2023-05-10T16:20:33;19.30;52.50
60848;DHT22;46681;47.696;9.140;2023-05-10T16:26:45;19.30;52.90
60848;DHT22;46681;47.696;9.140;2023-05-10T16:29:22;19.20;53.90
60848;DHT22;46681;47.696;9.140;2023-05-10T16:31:51;19.20;53.50
60848;DHT22;46681;47.696;9.140;2023-05-10T16:34:25;19.20;53.50
60848;DHT22;46681;47.696;9.140;2023-05-10T16:37:10;19.20;53.80
60848;DHT22;46681;47.696;9.140;2023-05-10T16:39:41;19.20;53.50
60848;DHT22;46681;47.696;9.140;2023-05-10T16:42:10;19.10;53.90
60848;DHT22;46681;47.696;9.140;2023-05-10T16:44:40;19.10;53.90
60848;DHT22;46681;47.696;9.140;2023-05-10T16:47:22;19.10;54.50
60848;DHT22;46681;47.696;9.140;2023-05-10T16:49:48;19.10;54.10
60848;DHT22;46681;47.696;9.140;2023-05-10T16:52:32;19.00;54.00
60848;DHT22;46681;47.696;9.140;2023-05-10T16:55:23;19.00;54.10
60848;DHT22;46681;47.696;9.140;2023-05-10T16:58:01;19.00;54.10
60848;DHT22;46681;47.696;9.140;2023-05-10T17:00:38;19.00;54.50
60848;DHT22;46681;47.696;9.140;2023-05-10T17:03:16;18.90;54.40
60848;DHT22;46681;47.696;9.140;2023-05-10T17:05:43;18.90;54.60
60848;DHT22;46681;47.696;9.140;2023-05-10T17:08:15;18.90;54.60